Ansonia, Pennsylvania
Current Conditions -  °F | °C
As of 11:55 PM on Friday 28 Nov 2014 (Local Time) from KN38 Reporting Station
Overcast Overcast  
Wind Chill: -8°   Ceiling: 10000
Heat Index: -8°   Visibility: 10mi
Dew Point: -12°   Wind: 3mph
Humidity: 73%   Direction: 250°WSW
Pressure: 30.16"   Gusts: NA
Location:  41.7308°N, 77.349°W
Report Text: KN38 290455Z AUTO 25003KT 10SM FEW060 FEW080 OVC100 M08/M12 A3016 RMK AO2
Loading
Personal Weather Stations






























Interactive Weather Map New forecast layout! Learn more

10-Day Weather Forecast

Advertisements
Track Severe Weather on mobile